createdAt,value
2023-05-15T00:01:54.178Z,15.69
2023-05-15T00:06:07.350Z,15.62
2023-05-15T00:10:25.471Z,15.65
2023-05-15T00:14:38.196Z,15.83
2023-05-15T00:18:50.649Z,15.77
2023-05-15T00:23:03.111Z,15.75
2023-05-15T00:27:20.812Z,15.64
2023-05-15T00:31:34.490Z,15.59
2023-05-15T00:35:47.014Z,15.57
2023-05-15T00:39:59.744Z,15.49
2023-05-15T00:44:13.193Z,15.54
2023-05-15T00:48:26.557Z,15.60
2023-05-15T00:52:39.272Z,15.63
2023-05-15T00:56:52.990Z,15.57
2023-05-15T01:01:08.309Z,15.53
2023-05-15T01:05:22.079Z,15.49
2023-05-15T01:09:36.273Z,15.44
2023-05-15T01:13:48.752Z,15.40
2023-05-15T01:18:01.867Z,15.41
2023-05-15T01:22:47.461Z,15.45
2023-05-15T01:27:02.601Z,15.45
2023-05-15T01:31:19.808Z,15.43
2023-05-15T01:35:40.099Z,15.44
2023-05-15T01:39:58.725Z,15.42
2023-05-15T01:44:29.511Z,15.46
2023-05-15T01:48:44.412Z,15.49
2023-05-15T01:52:59.067Z,15.49
2023-05-15T01:57:13.001Z,15.64
2023-05-15T02:01:27.014Z,15.66
2023-05-15T02:05:39.670Z,15.61
2023-05-15T02:09:56.332Z,15.66
2023-05-15T02:14:11.663Z,15.59
2023-05-15T02:18:24.621Z,15.54
2023-05-15T02:22:37.265Z,15.51
2023-05-15T02:27:14.121Z,15.50
2023-05-15T02:31:37.116Z,15.57
2023-05-15T02:35:59.525Z,15.51
2023-05-15T02:40:13.937Z,15.49
2023-05-15T02:44:27.638Z,15.56
2023-05-15T02:48:42.080Z,15.66
2023-05-15T02:53:10.890Z,15.65
2023-05-15T02:57:23.275Z,15.68
2023-05-15T03:01:35.832Z,15.65
2023-05-15T03:05:48.462Z,15.66
2023-05-15T03:10:00.773Z,15.71
2023-05-15T03:14:13.237Z,15.71
2023-05-15T03:18:25.703Z,15.70
2023-05-15T03:22:38.072Z,15.67
2023-05-15T03:26:50.518Z,15.73
2023-05-15T03:31:05.129Z,15.64
2023-05-15T03:35:17.602Z,15.56
2023-05-15T03:39:29.972Z,15.55
2023-05-15T03:43:42.273Z,15.67
2023-05-15T03:47:54.713Z,15.64
2023-05-15T03:52:07.673Z,15.69
2023-05-15T03:56:20.180Z,15.75
2023-05-15T04:00:32.496Z,15.79
2023-05-15T04:04:45.006Z,15.75
2023-05-15T04:08:57.425Z,15.90
2023-05-15T04:13:10.342Z,15.95
2023-05-15T04:17:23.850Z,15.96
2023-05-15T04:21:36.169Z,16.03
2023-05-15T04:25:49.950Z,16.08
2023-05-15T04:30:02.902Z,16.11
2023-05-15T04:34:15.303Z,16.01
2023-05-15T04:38:27.751Z,16.02
2023-05-15T04:42:40.173Z,16.10
2023-05-15T04:46:52.500Z,16.14
2023-05-15T04:51:05.122Z,16.14
2023-05-15T04:55:17.642Z,16.12
2023-05-15T04:59:30.144Z,16.11
2023-05-15T05:03:42.625Z,16.17
2023-05-15T05:07:55.132Z,16.18
2023-05-15T05:12:08.757Z,16.11
2023-05-15T05:16:21.161Z,16.05
2023-05-15T05:20:33.585Z,15.96
2023-05-15T05:24:46.171Z,15.89
2023-05-15T05:28:58.708Z,15.81
2023-05-15T05:33:11.029Z,15.81
2023-05-15T05:37:23.535Z,15.84
2023-05-15T05:41:36.056Z,16.11
2023-05-15T05:45:48.723Z,16.34
2023-05-15T05:50:01.212Z,16.44
2023-05-15T05:54:15.410Z,16.56
2023-05-15T05:58:27.869Z,16.59
2023-05-15T06:02:40.927Z,16.89
2023-05-15T06:06:54.102Z,16.85
2023-05-15T06:11:07.692Z,16.88
2023-05-15T06:15:20.024Z,16.82
2023-05-15T06:19:32.803Z,16.85
2023-05-15T06:23:45.342Z,16.77
2023-05-15T06:27:57.865Z,16.85
2023-05-15T06:32:10.368Z,16.73
2023-05-15T06:36:22.851Z,16.50
2023-05-15T06:40:35.801Z,16.30
2023-05-15T06:44:50.007Z,16.56
2023-05-15T06:49:02.467Z,16.69
2023-05-15T06:53:15.858Z,16.63
2023-05-15T06:57:28.301Z,16.66
2023-05-15T07:01:40.801Z,16.81
2023-05-15T07:05:54.238Z,17.05
2023-05-15T07:10:07.235Z,17.19
2023-05-15T07:14:19.754Z,17.55
2023-05-15T07:18:32.519Z,17.75
2023-05-15T07:22:55.697Z,17.87
2023-05-15T07:27:10.663Z,17.90
2023-05-15T07:31:23.085Z,17.81
2023-05-15T07:35:36.861Z,17.76
2023-05-15T07:39:53.712Z,17.82
2023-05-15T07:44:06.622Z,17.83
2023-05-15T07:48:20.545Z,17.74
2023-05-15T07:52:32.992Z,17.59
2023-05-15T07:56:45.310Z,17.57
2023-05-15T08:00:57.649Z,17.60
2023-05-15T08:05:10.215Z,17.56
2023-05-15T08:09:22.649Z,17.90
2023-05-15T08:13:35.293Z,18.16
2023-05-15T08:17:47.838Z,18.25
2023-05-15T08:22:00.402Z,18.45
2023-05-15T08:26:12.880Z,18.64
2023-05-15T08:30:25.308Z,19.18
2023-05-15T08:34:39.042Z,19.43
2023-05-15T08:38:51.536Z,19.43
2023-05-15T08:43:17.028Z,19.82
2023-05-15T08:47:33.152Z,20.64
2023-05-15T08:51:45.903Z,20.60
2023-05-15T08:55:58.768Z,19.91
2023-05-15T09:00:15.147Z,19.88
2023-05-15T09:04:27.615Z,19.55
2023-05-15T09:08:41.270Z,20.12
2023-05-15T09:12:55.724Z,20.28
2023-05-15T09:17:13.552Z,20.77
2023-05-15T09:21:28.542Z,20.92
2023-05-15T09:25:43.039Z,21.41
2023-05-15T09:29:58.224Z,20.92
2023-05-15T09:34:10.790Z,21.69
2023-05-15T09:38:23.225Z,21.33
2023-05-15T09:42:36.983Z,20.65
2023-05-15T09:46:51.312Z,20.83
2023-05-15T09:51:06.126Z,21.98
2023-05-15T09:55:20.576Z,22.28
2023-05-15T09:59:33.296Z,23.35
2023-05-15T10:03:45.788Z,24.63
2023-05-15T10:07:59.106Z,25.68
2023-05-15T10:12:12.173Z,26.12
2023-05-15T10:16:26.008Z,25.81
2023-05-15T10:20:39.177Z,24.32
2023-05-15T10:25:00.855Z,24.32
2023-05-15T10:29:15.215Z,26.00
2023-05-15T10:33:28.426Z,25.47
2023-05-15T10:37:41.276Z,26.53
2023-05-15T10:41:54.860Z,26.57
2023-05-15T10:46:08.130Z,26.22
2023-05-15T10:50:20.827Z,26.99
2023-05-15T10:54:34.283Z,27.48
2023-05-15T10:58:51.230Z,26.39
2023-05-15T11:03:05.649Z,26.55
2023-05-15T11:07:18.551Z,26.37
2023-05-15T11:11:52.862Z,27.16
2023-05-15T11:16:05.825Z,26.68
2023-05-15T11:20:18.276Z,25.94
2023-05-15T11:24:32.645Z,26.14
2023-05-15T11:28:46.048Z,26.08
2023-05-15T11:33:04.603Z,26.32
2023-05-15T11:37:20.204Z,26.66
2023-05-15T11:41:32.725Z,26.31
2023-05-15T11:45:48.337Z,25.61
2023-05-15T11:50:01.121Z,25.20
2023-05-15T11:54:14.475Z,25.54
2023-05-15T11:58:27.438Z,25.98
2023-05-15T12:02:40.120Z,26.63
2023-05-15T12:06:52.719Z,27.03
2023-05-15T12:11:06.042Z,27.10
2023-05-15T12:15:18.529Z,28.30
2023-05-15T12:19:31.638Z,27.61
2023-05-15T12:24:03.273Z,26.17
2023-05-15T12:28:19.299Z,25.27
2023-05-15T12:32:34.037Z,25.15
2023-05-15T12:36:46.587Z,24.30
2023-05-15T12:40:59.078Z,24.08
2023-05-15T12:45:18.745Z,23.74
2023-05-15T12:49:31.608Z,23.58
2023-05-15T12:53:44.122Z,23.62
2023-05-15T12:58:08.362Z,23.73
2023-05-15T13:02:22.574Z,24.09
2023-05-15T13:06:46.577Z,24.00
2023-05-15T13:11:01.146Z,23.18
2023-05-15T13:15:28.713Z,22.96
2023-05-15T13:19:41.242Z,22.70
2023-05-15T13:23:53.754Z,22.87
2023-05-15T13:28:07.807Z,23.10
2023-05-15T13:32:20.227Z,23.57
2023-05-15T13:36:32.743Z,23.41
2023-05-15T13:40:45.298Z,23.44
2023-05-15T13:45:00.609Z,23.71
2023-05-15T13:49:13.269Z,24.11
2023-05-15T13:53:25.988Z,24.89
2023-05-15T13:57:39.964Z,24.77
2023-05-15T14:01:52.470Z,24.73
2023-05-15T14:06:05.240Z,25.24
2023-05-15T14:10:17.742Z,26.04
2023-05-15T14:14:30.212Z,26.49
2023-05-15T14:18:42.818Z,27.12
2023-05-15T14:22:55.314Z,27.34
2023-05-15T14:27:08.020Z,27.53
2023-05-15T14:31:20.411Z,27.91
2023-05-15T14:35:33.363Z,27.71
2023-05-15T14:39:45.898Z,27.76
2023-05-15T14:43:58.331Z,27.32
2023-05-15T14:48:12.028Z,26.20
2023-05-15T14:52:24.575Z,25.87
2023-05-15T14:56:37.005Z,26.14
2023-05-15T15:00:49.520Z,26.29
2023-05-15T15:05:01.932Z,26.29
2023-05-15T15:09:14.436Z,26.37
2023-05-15T15:13:27.567Z,26.60
2023-05-15T15:17:39.929Z,26.56
2023-05-15T15:21:52.356Z,27.03
2023-05-15T15:26:04.800Z,26.20
2023-05-15T15:30:17.708Z,25.87
2023-05-15T15:34:30.171Z,25.76
2023-05-15T15:38:44.035Z,25.43
2023-05-15T15:42:56.799Z,25.59
2023-05-15T15:47:09.352Z,25.48
2023-05-15T15:51:21.750Z,25.52
2023-05-15T15:55:34.223Z,25.34
2023-05-15T15:59:47.358Z,25.33
2023-05-15T16:03:59.770Z,25.36
2023-05-15T16:08:12.320Z,25.27
2023-05-15T16:12:25.085Z,25.33
2023-05-15T16:16:37.664Z,25.13
2023-05-15T16:20:50.218Z,24.97
2023-05-15T16:25:03.243Z,24.81
2023-05-15T16:29:16.383Z,24.72
2023-05-15T16:33:33.277Z,24.83
2023-05-15T16:37:45.988Z,24.66
2023-05-15T16:41:58.810Z,24.66
2023-05-15T16:46:11.317Z,24.61
2023-05-15T16:50:24.377Z,24.59
2023-05-15T16:54:37.080Z,24.56
2023-05-15T16:58:50.929Z,24.45
2023-05-15T17:03:06.016Z,24.56
2023-05-15T17:07:18.770Z,24.37
2023-05-15T17:11:31.268Z,24.34
2023-05-15T17:15:43.760Z,24.33
2023-05-15T17:20:00.393Z,24.18
2023-05-15T17:24:16.109Z,24.12
2023-05-15T17:28:28.589Z,24.16
2023-05-15T17:32:41.311Z,23.84
2023-05-15T17:36:53.822Z,23.56
2023-05-15T17:41:07.514Z,23.55
2023-05-15T17:45:19.964Z,23.66
2023-05-15T17:49:34.551Z,23.70
2023-05-15T17:53:48.415Z,23.40
2023-05-15T17:58:00.911Z,23.19
2023-05-15T18:02:13.487Z,23.02
2023-05-15T18:06:26.306Z,22.83
2023-05-15T18:10:38.688Z,22.94
2023-05-15T18:14:51.088Z,22.95
2023-05-15T18:19:04.526Z,22.64
2023-05-15T18:23:19.979Z,22.29
2023-05-15T18:27:32.318Z,22.04
2023-05-15T18:31:45.107Z,21.91
2023-05-15T18:35:57.475Z,21.99
2023-05-15T18:40:10.864Z,22.15
2023-05-15T18:44:23.163Z,21.96
2023-05-15T18:48:35.706Z,21.82
2023-05-15T18:52:49.817Z,21.76
2023-05-15T18:57:02.361Z,21.71
2023-05-15T19:01:14.784Z,21.59
2023-05-15T19:05:27.980Z,21.43
2023-05-15T19:09:40.497Z,21.27
2023-05-15T19:13:53.182Z,21.21
2023-05-15T19:18:06.873Z,21.36
2023-05-15T19:22:19.569Z,21.87
2023-05-15T19:26:32.429Z,22.55
2023-05-15T19:30:44.790Z,22.72
2023-05-15T19:34:57.180Z,22.80
2023-05-15T19:39:09.583Z,23.02
2023-05-15T19:43:22.119Z,23.02
2023-05-15T19:47:34.520Z,23.11
2023-05-15T19:51:47.061Z,23.38
2023-05-15T19:55:59.606Z,23.29
2023-05-15T20:00:12.807Z,23.27
2023-05-15T20:04:26.202Z,23.27
2023-05-15T20:08:39.443Z,23.09
2023-05-15T20:12:52.050Z,23.45
2023-05-15T20:17:04.931Z,23.54
2023-05-15T20:21:17.410Z,23.51
2023-05-15T20:25:30.909Z,23.46
2023-05-15T20:29:43.381Z,23.51
2023-05-15T20:33:57.325Z,23.68
2023-05-15T20:38:10.777Z,23.58
2023-05-15T20:42:24.324Z,23.26
2023-05-15T20:46:40.065Z,23.29
2023-05-15T20:50:53.793Z,23.77
2023-05-15T20:55:16.311Z,23.87
2023-05-15T20:59:28.834Z,23.90
2023-05-15T21:03:41.426Z,23.76
2023-05-15T21:07:53.842Z,23.62
2023-05-15T21:12:06.832Z,23.53
2023-05-15T21:16:19.349Z,23.64
2023-05-15T21:20:32.975Z,23.41
2023-05-15T21:24:47.328Z,23.42
2023-05-15T21:29:00.578Z,22.47
2023-05-15T21:33:13.292Z,23.05
2023-05-15T21:37:25.768Z,23.52
2023-05-15T21:41:38.212Z,23.60
2023-05-15T21:45:50.938Z,23.74
2023-05-15T21:50:03.528Z,23.73
2023-05-15T21:54:16.171Z,23.90
2023-05-15T21:58:29.162Z,23.41
2023-05-15T22:02:41.985Z,23.31
2023-05-15T22:06:54.461Z,23.40
2023-05-15T22:11:07.634Z,23.55
2023-05-15T22:15:20.120Z,23.44
2023-05-15T22:19:33.343Z,23.31
2023-05-15T22:23:46.190Z,23.08
2023-05-15T22:27:58.926Z,23.08
2023-05-15T22:32:11.278Z,23.09
2023-05-15T22:36:26.943Z,23.16
2023-05-15T22:40:40.099Z,23.07
2023-05-15T22:44:54.254Z,22.93
2023-05-15T22:49:10.126Z,23.00
2023-05-15T22:53:22.449Z,22.40
2023-05-15T22:57:34.836Z,22.33
2023-05-15T23:01:48.047Z,22.45
2023-05-15T23:06:00.414Z,22.02
2023-05-15T23:10:12.740Z,22.24
2023-05-15T23:14:25.727Z,21.87
2023-05-15T23:18:38.093Z,21.78
2023-05-15T23:22:50.450Z,21.93
2023-05-15T23:27:02.784Z,21.74
2023-05-15T23:31:15.416Z,21.97
2023-05-15T23:35:27.878Z,21.59
2023-05-15T23:39:40.288Z,21.71
2023-05-15T23:43:52.659Z,21.74
2023-05-15T23:48:05.135Z,21.52
2023-05-15T23:52:17.670Z,21.41
2023-05-15T23:56:30.209Z,21.17
